Terminal Aerodrome Forecast
Issued by NWS Sterling, VA

Current Version | Previous Version | Text Only | Print | Product List | Glossary On
Versions: 1 2 3 4 5 6 7 8 9 10 11 12 13 14 15 16 17 18 19 20 21 22 23
326
FTUS41 KLWX 131133
TAFIAD
TAF
KIAD 131133Z 1312/1418 31018G35KT 5SM -SHSN BKN045
     FM131400 31019G40KT P6SM SCT030 BKN045
     FM131800 31019G35KT P6SM SCT050
     FM132300 31017G27KT P6SM SCT050
     FM140400 31013G20KT P6SM FEW250
     FM141400 32010KT P6SM FEW200=

USA.gov is the U.S. government's official web portal to all federal, state and local government web resources and services.